Time;durP1;ratioP1;P1;durP2;ratioP2;P2;SDS_P1;SDS_P2;PMS_P1;PMS_P2;Temp;Humidity;BMP_temperature;BMP_pressure;BME280_temperature;BME280_humidity;BME280_pressure;Samples;Min_cycle;Max_cycle;Signal;HPM_P1;HPM_P2
2022/05/09 00:02:00;;;;;;;3.67;3.33;;;;;;;8.24;82.02;96217.52;1789766;80;21477;-70
2022/05/09 00:04:27;;;;;;;5.73;3.33;;;;;;;8.27;82.32;96221.45;1789291;80;21524;-69
2022/05/09 00:06:53;;;;;;;4.10;3.30;;;;;;;8.31;82.45;96226.27;1780883;80;21492;-69
2022/05/09 00:09:20;;;;;;;4.07;3.13;;;;;;;8.36;82.40;96220.56;1780511;80;21050;-69
2022/05/09 00:11:47;;;;;;;5.93;3.60;;;;;;;8.31;81.76;96219.69;1781067;80;21019;-70
2022/05/09 00:14:14;;;;;;;4.67;3.30;;;;;;;8.36;82.10;96217.50;1780802;80;21196;-70
2022/05/09 00:16:41;;;;;;;4.20;2.83;;;;;;;8.40;81.66;96220.61;1780751;80;20956;-69
2022/05/09 00:19:11;;;;;;;4.23;3.23;;;;;;;8.27;81.08;96218.83;1780822;80;21050;-69
2022/05/09 00:21:41;;;;;;;4.23;3.10;;;;;;;8.21;81.26;96222.34;1780812;80;21015;-69
2022/05/09 00:24:12;;;;;;;5.67;3.50;;;;;;;8.18;81.53;96221.00;1780741;80;21039;-69
2022/05/09 00:26:37;;;;;;;4.57;3.30;;;;;;;8.18;81.64;96228.87;1780779;80;21027;-69
2022/05/09 00:29:06;;;;;;;4.07;3.60;;;;;;;8.16;81.41;96221.42;1780772;80;21015;-71
2022/05/09 00:31:33;;;;;;;3.83;2.73;;;;;;;8.14;81.52;96222.30;1780541;81;21569;-69
2022/05/09 00:34:00;;;;;;;4.13;3.00;;;;;;;8.11;81.26;96224.48;1781186;80;21002;-69
2022/05/09 00:36:27;;;;;;;4.43;3.07;;;;;;;8.07;81.34;96224.52;1780570;80;21103;-69
2022/05/09 00:38:54;;;;;;;4.87;3.53;;;;;;;8.07;81.46;96220.13;1748283;80;21414;-69
2022/05/09 00:41:40;;;;;;;4.30;2.97;;;;;;;8.10;82.10;96217.49;1780620;80;21008;-69
2022/05/09 00:44:21;;;;;;;5.13;3.63;;;;;;;8.18;82.87;96220.13;1775095;80;21043;-70
2022/05/09 00:46:53;;;;;;;4.23;3.03;;;;;;;8.27;82.85;96215.33;1780944;80;21536;-70
2022/05/09 00:49:45;;;;;;;4.57;2.93;;;;;;;8.35;82.38;96218.83;1780812;80;20995;-70
2022/05/09 00:52:30;;;;;;;5.53;3.00;;;;;;;8.35;81.70;96221.45;1780363;80;21016;-69
2022/05/09 00:55:06;;;;;;;6.93;3.47;;;;;;;8.41;81.78;96221.03;1776701;80;20995;-69
2022/05/09 00:57:53;;;;;;;4.20;2.83;;;;;;;8.30;81.03;96220.58;1780883;80;21022;-69
2022/05/09 01:00:22;;;;;;;3.80;3.40;;;;;;;8.19;80.94;96215.33;1780471;80;20979;-69
2022/05/09 01:02:59;;;;;;;4.03;2.93;;;;;;;8.12;81.61;96217.51;1780749;80;20991;-69
2022/05/09 01:05:28;;;;;;;4.20;3.17;;;;;;;8.13;81.92;96215.30;1780537;80;20972;-69
2022/05/09 01:07:57;;;;;;;3.63;3.30;;;;;;;8.21;82.13;96214.86;1780760;80;21015;-69
2022/05/09 01:10:29;;;;;;;3.40;3.07;;;;;;;8.21;81.84;96217.49;1780782;80;20953;-69
2022/05/09 01:13:00;;;;;;;4.30;3.13;;;;;;;8.15;81.55;96218.38;1780776;80;20983;-69
2022/05/09 01:15:26;;;;;;;3.90;3.20;;;;;;;8.17;81.65;96210.50;1780556;80;21517;-69
2022/05/09 01:17:54;;;;;;;3.40;3.10;;;;;;;8.24;81.85;96220.15;1780589;80;21007;-69
2022/05/09 01:20:21;;;;;;;4.10;3.47;;;;;;;8.29;81.46;96217.08;1780727;80;21489;-70
2022/05/09 01:22:48;;;;;;;4.00;3.60;;;;;;;8.37;81.93;96221.03;1780778;80;21103;-70
2022/05/09 01:25:17;;;;;;;4.93;3.93;;;;;;;8.43;81.39;96219.73;1780931;80;20999;-69
2022/05/09 01:27:46;;;;;;;6.00;3.90;;;;;;;8.34;80.85;96214.42;1780462;80;21091;-70
2022/05/09 01:30:24;;;;;;;5.33;3.83;;;;;;;8.32;80.94;96222.33;1780654;80;20987;-70
2022/05/09 01:33:11;;;;;;;4.37;3.97;;;;;;;8.21;80.99;96217.08;1748311;80;21023;-69
2022/05/09 01:36:03;;;;;;;3.53;3.20;;;;;;;8.10;81.14;96212.68;1780722;80;21087;-69
2022/05/09 01:39:04;;;;;;;4.63;4.17;;;;;;;7.99;81.24;96214.86;1780795;80;21488;-69
2022/05/09 01:41:47;;;;;;;5.70;4.40;;;;;;;7.94;82.12;96214.42;1780738;80;21500;-69
2022/05/09 01:44:16;;;;;;;5.53;3.47;;;;;;;7.93;82.25;96207.39;1780825;80;21118;-69
2022/05/09 01:49:32;;;;;;;6.27;3.33;;;;;;;7.78;81.64;96205.61;1780635;80;21568;-69
2022/05/09 01:52:03;;;;;;;5.27;3.90;;;;;;;7.69;81.46;96213.49;1780842;80;20995;-69
2022/05/09 01:54:31;;;;;;;4.20;3.50;;;;;;;7.63;82.75;96210.83;1780598;80;21558;-69
2022/05/09 01:56:58;;;;;;;4.57;3.90;;;;;;;7.62;82.33;96210.41;1780800;80;20995;-69
2022/05/09 01:59:24;;;;;;;5.80;3.93;;;;;;;7.65;82.45;96209.96;1780934;80;21011;-69
2022/05/09 02:02:08;;;;;;;4.23;3.77;;;;;;;7.68;82.22;96211.72;1780197;80;21059;-69
2022/05/09 02:04:38;;;;;;;10.72;4.17;;;;;;;7.66;83.19;96216.09;1780968;80;20991;-69
2022/05/09 02:07:09;;;;;;;7.97;4.30;;;;;;;7.69;83.16;96217.44;1788928;80;21528;-69
2022/05/09 02:09:34;;;;;;;10.90;3.90;;;;;;;7.77;83.21;96218.32;1789572;80;20998;-69
2022/05/09 02:12:01;;;;;;;4.37;3.97;;;;;;;7.82;83.40;96219.20;1790124;80;21002;-69
2022/05/09 02:14:28;;;;;;;5.43;3.70;;;;;;;7.82;83.09;96217.02;1790106;80;21003;-69
2022/05/09 02:16:54;;;;;;;3.40;3.10;;;;;;;7.87;83.10;96221.84;1789698;80;20967;-69
2022/05/09 02:19:21;;;;;;;5.57;3.50;;;;;;;7.83;82.24;96223.58;1790014;80;21038;-69
2022/05/09 02:21:47;;;;;;;4.43;3.27;;;;;;;7.82;82.60;96219.20;1789560;80;21070;-69
2022/05/09 02:24:14;;;;;;;3.47;3.17;;;;;;;7.86;82.62;96218.35;1789886;80;21030;-69
2022/05/09 02:26:40;;;;;;;3.90;3.50;;;;;;;7.87;82.42;96221.41;1789854;80;21031;-69
2022/05/09 02:29:07;;;;;;;3.97;3.20;;;;;;;7.86;82.32;96220.08;1789921;80;21003;-69
2022/05/09 02:31:34;;;;;;;4.13;3.70;;;;;;;7.83;82.12;96220.08;1789343;80;21476;-69
2022/05/09 02:34:01;;;;;;;5.50;3.93;;;;;;;7.79;82.46;96221.83;1790112;80;20971;-69
2022/05/09 02:36:29;;;;;;;6.60;4.00;;;;;;;7.84;82.69;96214.84;1789859;80;21011;-69
2022/05/09 02:38:55;;;;;;;8.43;4.33;;;;;;;7.82;82.39;96220.52;1790319;80;20975;-69
2022/05/09 02:41:22;;;;;;;7.63;4.77;;;;;;;7.88;82.56;96223.14;1790078;80;21007;-69
2022/05/09 02:43:49;;;;;;;3.97;3.40;;;;;;;7.91;82.29;96218.33;1789955;80;21500;-69
2022/05/09 02:46:16;;;;;;;5.03;3.30;;;;;;;7.96;82.35;96223.16;1789527;80;20995;-69
2022/05/09 02:48:45;;;;;;;4.63;3.03;;;;;;;7.95;81.73;96224.05;1790002;80;21477;-70
2022/05/09 02:51:13;;;;;;;5.33;3.23;;;;;;;7.89;81.57;96222.29;1789640;80;21066;-69
2022/05/09 02:53:40;;;;;;;3.97;3.17;;;;;;;7.86;81.46;96230.17;1789920;80;20968;-69
2022/05/09 02:56:07;;;;;;;4.43;3.20;;;;;;;7.80;81.62;96229.70;1789951;80;21509;-69
2022/05/09 02:58:37;;;;;;;4.90;3.50;;;;;;;7.76;81.68;96231.90;1789725;80;21058;-69
2022/05/09 03:01:05;;;;;;;3.67;3.17;;;;;;;7.73;81.78;96234.49;1789842;80;21011;-69
2022/05/09 03:06:17;;;;;;;4.63;4.13;;;;;;;7.64;81.88;96241.50;1787881;80;21078;-69
2022/05/09 03:08:44;;;;;;;4.53;4.10;;;;;;;7.64;82.61;96242.81;1786709;79;21476;-69
2022/05/09 03:11:11;;;;;;;5.50;4.00;;;;;;;7.65;82.11;96243.23;1786695;79;21002;-69
2022/05/09 03:13:39;;;;;;;5.90;4.23;;;;;;;7.65;82.28;96251.11;1786412;79;21094;-69
2022/05/09 03:16:07;;;;;;;4.67;4.10;;;;;;;7.64;82.65;96244.99;1786449;79;21047;-69
2022/05/09 03:18:34;;;;;;;8.37;4.23;;;;;;;7.61;82.84;96246.71;1786498;79;21010;-69
2022/05/09 03:21:01;;;;;;;4.40;3.97;;;;;;;7.53;82.53;96248.91;1786902;80;21054;-69
2022/05/09 03:23:29;;;;;;;4.63;4.23;;;;;;;7.55;82.76;96244.95;1786613;79;21019;-69
2022/05/09 03:25:56;;;;;;;3.50;3.20;;;;;;;7.60;82.59;96249.78;1786353;79;21027;-69
2022/05/09 03:28:26;;;;;;;4.63;3.90;;;;;;;7.58;82.19;96246.27;1786165;80;21006;-69
2022/05/09 03:30:57;;;;;;;4.67;3.70;;;;;;;7.55;82.69;96250.20;1786497;79;21007;-69
2022/05/09 03:33:27;;;;;;;5.00;3.80;;;;;;;7.57;82.79;96244.08;1786522;79;21508;-69
2022/05/09 03:35:56;;;;;;;5.03;4.17;;;;;;;7.57;83.26;96243.22;1786617;79;21034;-69
2022/05/09 03:38:23;;;;;;;6.53;4.40;;;;;;;7.52;83.34;96250.20;1786723;79;21492;-69
2022/05/09 03:40:49;;;;;;;6.27;4.27;;;;;;;7.52;83.70;96252.83;1786554;79;21047;-69
2022/05/09 03:43:16;;;;;;;6.00;4.80;;;;;;;7.50;83.73;96251.94;1787021;79;21003;-69
2022/05/09 03:45:45;;;;;;;5.70;4.60;;;;;;;7.51;84.24;96250.64;1786410;79;21018;-69
2022/05/09 03:48:12;;;;;;;6.80;5.07;;;;;;;7.56;84.38;96251.97;1786452;80;21005;-69
2022/05/09 03:50:39;;;;;;;4.33;3.93;;;;;;;7.61;84.91;96254.18;1786745;79;21070;-69
2022/05/09 03:53:05;;;;;;;4.77;3.93;;;;;;;7.67;85.16;96255.50;1786527;79;21027;-69
2022/05/09 03:55:38;;;;;;;6.27;4.97;;;;;;;7.67;85.67;96256.81;1786615;79;21513;-69
2022/05/09 03:58:03;;;;;;;6.00;4.50;;;;;;;7.69;85.31;96258.14;1785065;80;21014;-69
2022/05/09 04:00:32;;;;;;;6.70;4.57;;;;;;;7.72;85.77;96251.58;1786315;79;21006;-70
2022/05/09 04:03:04;;;;;;;13.97;8.47;;;;;;;7.73;85.12;96252.88;1786484;80;21488;-69
2022/05/09 04:05:31;;;;;;;21.73;9.60;;;;;;;7.77;85.54;96254.66;1786666;80;21002;-69
2022/05/09 04:08:01;;;;;;;54.70;19.40;;;;;;;7.87;85.18;96254.69;1789758;80;21110;-69
2022/05/09 04:10:32;;;;;;;18.63;9.00;;;;;;;7.97;85.11;96255.16;1790292;79;20975;-69
2022/05/09 04:13:00;;;;;;;13.77;7.73;;;;;;;8.11;85.37;96259.97;1790020;80;21050;-69
2022/05/09 04:18:17;;;;;;;19.53;8.93;;;;;;;8.41;85.04;96262.23;1789786;79;21066;-69
2022/05/09 04:20:44;;;;;;;15.63;8.30;;;;;;;8.64;85.05;96263.14;1789898;80;21038;-69
2022/05/09 04:23:11;;;;;;;12.30;6.80;;;;;;;8.83;84.69;96263.98;1789693;80;21050;-69
2022/05/09 04:25:37;;;;;;;13.33;6.90;;;;;;;8.96;83.53;96254.31;1789946;80;21014;-69
2022/05/09 04:28:08;;;;;;;8.53;6.30;;;;;;;9.03;83.12;96255.19;1789952;80;21043;-69
2022/05/09 04:30:38;;;;;;;45.10;28.27;;;;;;;9.12;83.06;96258.23;1789480;80;21063;-70
2022/05/09 04:33:07;;;;;;;32.47;20.87;;;;;;;9.28;83.63;96262.59;1789835;80;21018;-69
2022/05/09 04:35:37;;;;;;;30.60;18.57;;;;;;;9.46;82.96;96262.52;1789867;80;21022;-69
2022/05/09 04:38:05;;;;;;;18.30;11.23;;;;;;;9.61;82.87;96265.55;1789982;80;21010;-69
2022/05/09 04:40:35;;;;;;;50.77;31.87;;;;;;;9.73;82.80;96264.63;1789989;80;20967;-69
2022/05/09 04:43:04;;;;;;;22.10;15.07;;;;;;;9.87;82.58;96257.95;1789793;79;21092;-69
2022/05/09 04:45:32;;;;;;;15.23;10.37;;;;;;;10.01;82.29;96257.45;1789999;80;21476;-69
2022/05/09 04:48:00;;;;;;;19.50;14.77;;;;;;;10.19;82.46;96253.81;1789747;79;21006;-69
2022/05/09 04:50:28;;;;;;;13.13;9.90;;;;;;;10.40;82.51;96252.36;1789791;79;21260;-70
2022/05/09 04:52:55;;;;;;;11.20;8.67;;;;;;;10.60;81.66;96257.94;1789967;80;21018;-69
2022/05/09 04:55:24;;;;;;;8.60;6.93;;;;;;;10.74;80.93;96261.35;1789749;80;21002;-69
2022/05/09 04:57:52;;;;;;;9.63;6.20;;;;;;;10.87;80.89;96258.61;1789849;80;21047;-69
2022/05/09 05:00:25;;;;;;;13.13;8.50;;;;;;;10.96;80.29;96257.18;1789894;80;21026;-68
2022/05/09 05:02:53;;;;;;;7.65;6.95;;;;;;;11.02;79.85;96257.14;1789895;80;21453;-70
2022/05/09 05:05:21;;;;;;;9.23;6.77;;;;;;;11.10;79.62;96263.22;1789857;80;21516;-70
2022/05/09 05:07:48;;;;;;;7.07;6.07;;;;;;;11.17;79.53;96265.36;1781537;80;21571;-75
2022/05/09 05:10:16;;;;;;;8.98;6.20;;;;;;;11.24;79.24;96262.64;1779866;80;21065;-70
2022/05/09 05:12:43;;;;;;;9.35;5.92;;;;;;;11.35;78.96;96260.33;1779195;80;21011;-70
2022/05/09 05:15:10;;;;;;;6.95;5.45;;;;;;;11.41;78.31;96258.92;1779998;80;21030;-68
2022/05/09 05:17:37;;;;;;;6.30;5.45;;;;;;;11.49;78.39;96257.09;1779748;80;21129;-70
2022/05/09 05:20:09;;;;;;;7.53;5.78;;;;;;;11.59;78.50;96259.16;1780167;80;21027;-69
2022/05/09 05:22:39;;;;;;;9.48;6.35;;;;;;;11.67;78.45;96252.03;1779238;80;21142;-72
2022/05/09 05:25:08;;;;;;;11.88;6.85;;;;;;;11.76;78.14;96253.22;1747798;80;21034;-71
2022/05/09 05:27:35;;;;;;;8.15;6.30;;;;;;;11.83;77.58;96249.60;1779687;80;21049;-71
2022/05/09 05:30:02;;;;;;;8.63;6.30;;;;;;;11.89;77.57;96250.90;1780043;80;21097;-76
2022/05/09 05:32:35;;;;;;;8.98;6.45;;;;;;;11.99;77.26;96255.59;1779387;80;21062;-71
2022/05/09 05:35:02;;;;;;;6.60;5.90;;;;;;;12.10;77.37;96251.05;1779344;80;21078;-73
2022/05/09 05:37:29;;;;;;;11.55;7.60;;;;;;;12.23;76.79;96253.52;1779402;80;21054;-78
2022/05/09 05:39:57;;;;;;;14.60;8.13;;;;;;;12.34;76.50;96254.22;1779231;80;21065;-76
2022/05/09 05:42:24;;;;;;;15.08;7.42;;;;;;;12.50;76.81;96259.72;1780340;80;21438;-72
2022/05/09 05:44:50;;;;;;;11.33;7.67;;;;;;;12.67;76.60;96251.94;1779052;80;21552;-72
2022/05/09 05:47:19;;;;;;;13.10;7.00;;;;;;;12.86;76.46;96248.55;1779452;80;21536;-69
2022/05/09 05:49:46;;;;;;;10.93;5.92;;;;;;;13.04;76.23;96246.91;1780223;80;20980;-74
2022/05/09 05:52:14;;;;;;;9.83;6.58;;;;;;;13.21;76.03;96247.93;1780554;80;21494;-74
2022/05/09 05:54:44;;;;;;;10.08;5.90;;;;;;;13.35;75.34;96249.88;1779671;80;21022;-71
2022/05/09 05:57:25;;;;;;;10.30;5.87;;;;;;;13.49;75.02;96248.77;1779821;80;21061;-72
2022/05/09 05:59:59;;;;;;;16.17;6.00;;;;;;;13.65;74.91;96247.55;1779230;80;21054;-72
2022/05/09 06:02:27;;;;;;;9.48;5.58;;;;;;;13.84;74.51;96250.70;1779193;80;21431;-72
2022/05/09 06:04:54;;;;;;;9.73;5.45;;;;;;;14.05;74.36;96246.71;1779457;80;21081;-72
2022/05/09 06:07:22;;;;;;;10.23;6.40;;;;;;;14.27;73.78;96250.64;1779038;80;21067;-80
2022/05/09 06:09:52;;;;;;;8.85;6.17;;;;;;;14.50;73.78;96242.60;1779953;80;21007;-71
2022/05/09 06:12:21;;;;;;;8.03;4.80;;;;;;;14.72;73.19;96241.67;1779795;80;21041;-69
2022/05/09 06:15:24;;;;;;;4.53;4.12;;;;;;;14.98;72.74;96244.13;1780205;80;21046;-72
2022/05/09 06:17:18;;;;;;;7.05;3.70;;;;;;;15.17;70.62;96242.75;1774731;80;21004;-72
2022/05/09 06:19:45;;;;;;;5.03;4.35;;;;;;;15.25;64.65;96240.75;1779938;80;20952;-74
2022/05/09 06:22:13;;;;;;;5.78;4.60;;;;;;;15.36;67.13;96241.78;1779717;80;21118;-76
2022/05/09 06:24:39;;;;;;;5.05;4.05;;;;;;;15.58;67.88;96235.43;1779396;80;21098;-74
2022/05/09 06:27:06;;;;;;;5.05;4.28;;;;;;;15.73;66.51;96232.36;1778660;81;21090;-73
2022/05/09 06:29:33;;;;;;;6.95;4.72;;;;;;;15.89;66.12;96231.92;1781896;80;20962;-75
2022/05/09 06:32:00;;;;;;;7.10;5.03;;;;;;;15.95;64.95;96231.29;1787220;80;20997;-72
2022/05/09 06:34:27;;;;;;;5.90;4.40;;;;;;;16.21;65.03;96230.96;1787785;80;21015;-74
2022/05/09 06:36:53;;;;;;;6.42;4.53;;;;;;;16.21;65.03;96230.96;1786782;80;21034;-68
2022/05/09 06:39:20;;;;;;;5.55;4.92;;;;;;;16.53;65.38;96229.97;1786471;80;21010;-72
2022/05/09 06:41:47;;;;;;;5.65;4.20;;;;;;;16.53;65.38;96229.97;1785264;80;21531;-72
2022/05/09 06:44:14;;;;;;;6.87;4.37;;;;;;;16.89;64.98;96226.19;1785873;80;21035;-70
2022/05/09 06:46:40;;;;;;;5.12;4.10;;;;;;;16.89;64.98;96226.19;1785782;80;21019;-73
2022/05/09 06:49:07;;;;;;;7.28;4.10;;;;;;;17.00;64.07;96224.88;1786166;80;21007;-72
2022/05/09 06:51:34;;;;;;;5.78;4.42;;;;;;;17.16;63.84;96227.02;1785479;80;21051;-72
2022/05/09 06:54:02;;;;;;;4.37;3.98;;;;;;;17.29;62.07;96226.56;1786570;80;20972;-69
2022/05/09 06:56:28;;;;;;;6.72;4.90;;;;;;;17.45;62.99;96221.55;1786931;80;21077;-72
2022/05/09 06:58:55;;;;;;;6.08;4.60;;;;;;;17.57;61.26;96226.91;1787084;80;21497;-71
2022/05/09 07:01:22;;;;;;;5.37;4.80;;;;;;;17.68;61.05;96222.05;1786623;80;21524;-70
2022/05/09 07:03:48;;;;;;;6.90;4.35;;;;;;;17.84;61.23;96221.51;1786740;80;21003;-69
2022/05/09 07:06:16;;;;;;;5.37;4.62;;;;;;;17.99;60.34;96224.07;1779925;80;20995;-72
2022/05/09 07:08:43;;;;;;;6.35;4.30;;;;;;;18.12;60.15;96225.37;1762701;81;21018;-74
2022/05/09 07:11:11;;;;;;;6.78;4.70;;;;;;;18.25;59.43;96222.63;1763248;81;21014;-70
2022/05/09 07:13:39;;;;;;;7.30;5.00;;;;;;;18.33;55.17;96220.52;1813608;79;20967;-70
2022/05/09 07:16:08;;;;;;;12.33;8.73;;;;;;;18.40;51.20;96223.83;1763500;81;21084;-71
2022/05/09 07:18:37;;;;;;;7.90;4.78;;;;;;;18.51;53.30;96225.59;1813522;79;21062;-71
2022/05/09 07:21:05;;;;;;;5.30;4.37;;;;;;;18.69;55.36;96222.64;1813751;78;21059;-70
2022/05/09 07:23:33;;;;;;;4.97;4.58;;;;;;;18.87;55.69;96227.73;1813629;79;21536;-70
2022/05/09 07:26:02;;;;;;;5.08;4.33;;;;;;;19.00;54.99;96222.78;1763802;81;21053;-70
2022/05/09 07:28:29;;;;;;;5.62;4.30;;;;;;;19.14;55.02;96220.84;1813440;79;21493;-72
2022/05/09 07:30:59;;;;;;;6.42;5.83;;;;;;;19.26;52.93;96220.33;1813350;79;21347;-71
2022/05/09 07:33:27;;;;;;;5.15;4.65;;;;;;;19.36;51.41;96216.31;1763039;81;21034;-71
2022/05/09 07:35:54;;;;;;;5.00;4.40;;;;;;;19.43;51.12;96212.44;1812869;79;21026;-73
2022/05/09 07:38:21;;;;;;;6.62;4.20;;;;;;;19.53;50.50;96213.36;1763820;81;21042;-74
2022/05/09 07:40:48;;;;;;;6.15;4.83;;;;;;;19.60;46.28;96211.67;1812867;79;21054;-70
2022/05/09 07:43:20;;;;;;;5.62;4.05;;;;;;;19.73;47.94;96213.84;1762332;81;21584;-69
2022/05/09 07:45:47;;;;;;;5.72;4.22;;;;;;;19.81;47.27;96212.58;1812401;79;21296;-69
2022/05/09 07:48:16;;;;;;;5.00;3.87;;;;;;;19.83;46.42;96216.06;1812988;79;21041;-72
2022/05/09 07:50:43;;;;;;;7.85;4.20;;;;;;;19.89;46.47;96213.56;1814144;79;20995;-72
2022/05/09 07:53:18;;;;;;;5.17;4.42;;;;;;;19.93;47.59;96208.45;1762684;81;21037;-71
2022/05/09 07:55:47;;;;;;;5.80;3.60;;;;;;;20.05;48.01;96207.02;1813510;79;21501;-72
2022/05/09 07:58:16;;;;;;;5.60;3.72;;;;;;;20.18;46.10;96208.66;1813257;79;21015;-72
2022/05/09 08:00:45;;;;;;;3.92;3.62;;;;;;;20.29;46.42;96207.70;1763859;81;21464;-74
2022/05/09 08:03:23;;;;;;;4.08;3.60;;;;;;;20.41;44.47;96205.78;1761729;81;21010;-72
2022/05/09 08:05:56;;;;;;;4.50;3.62;;;;;;;20.55;44.40;96210.98;1733246;81;21602;-69
2022/05/09 08:08:23;;;;;;;4.92;3.50;;;;;;;20.57;43.21;96205.94;1780311;80;21051;-72
2022/05/09 08:10:50;;;;;;;4.25;3.50;;;;;;;20.68;43.91;96206.75;1769023;81;21141;-74
2022/05/09 08:13:19;;;;;;;5.65;3.75;;;;;;;20.79;43.46;96201.75;1769145;81;21323;-67
2022/05/09 08:15:47;;;;;;;6.03;3.42;;;;;;;20.86;41.39;96207.18;1769015;81;21053;-70
2022/05/09 08:18:15;;;;;;;5.80;3.42;;;;;;;20.86;40.67;96206.31;1768319;81;21022;-69
2022/05/09 08:20:45;;;;;;;6.22;3.65;;;;;;;21.02;42.86;96203.28;1769437;81;21658;-69
2022/05/09 08:23:19;;;;;;;4.50;3.60;;;;;;;21.17;42.29;96205.19;1765551;81;21009;-69
2022/05/09 08:25:51;;;;;;;3.90;3.60;;;;;;;21.27;40.89;96208.27;1766965;81;20998;-69
2022/05/09 08:28:22;;;;;;;4.50;3.87;;;;;;;21.39;42.21;96209.02;1762998;81;20970;-70
2022/05/09 08:30:51;;;;;;;4.50;4.10;;;;;;;21.51;42.02;96202.12;1725275;83;21103;-69
2022/05/09 08:33:23;;;;;;;4.85;3.87;;;;;;;21.58;42.16;96204.89;1754250;82;21557;-70
2022/05/09 08:35:52;;;;;;;6.55;3.52;;;;;;;21.58;40.51;96202.20;1755274;82;21014;-69
2022/05/09 08:38:21;;;;;;;4.60;3.62;;;;;;;21.59;40.17;96206.61;1755038;82;21149;-68
2022/05/09 08:40:59;;;;;;;5.35;3.95;;;;;;;21.43;41.43;96208.86;1754748;82;21128;-68
2022/05/09 08:44:08;;;;;;;4.80;4.15;;;;;;;21.44;41.82;96209.23;1754911;82;21102;-69
2022/05/09 08:46:58;;;;;;;4.67;4.12;;;;;;;21.50;42.49;96217.86;1754656;82;21600;-68
2022/05/09 08:49:54;;;;;;;4.42;4.03;;;;;;;21.38;43.23;96223.38;1759064;80;21457;-77
2022/05/09 08:52:39;;;;;;;5.42;4.03;;;;;;;21.17;43.90;96225.80;1785504;80;20991;-72
2022/05/09 08:55:07;;;;;;;6.20;5.60;;;;;;;20.84;45.01;96229.66;1730962;82;21026;-72
2022/05/09 08:57:53;;;;;;;5.22;4.72;;;;;;;20.58;45.50;96231.80;1777657;80;21031;-69
2022/05/09 09:00:23;;;;;;;4.25;3.90;;;;;;;20.37;45.98;96236.82;1744639;82;21592;-73
2022/05/09 09:02:58;;;;;;;4.45;4.05;;;;;;;20.01;48.86;96243.81;1744260;82;21093;-72
2022/05/09 09:05:28;;;;;;;4.00;3.60;;;;;;;19.88;48.25;96246.18;1744669;82;21094;-71
2022/05/09 09:08:03;;;;;;;6.55;3.42;;;;;;;19.66;48.21;96256.07;1748481;82;21082;-72
2022/05/09 09:10:53;;;;;;;5.03;3.75;;;;;;;19.36;48.63;96258.27;1761545;81;21512;-71
2022/05/09 09:13:38;;;;;;;5.90;3.47;;;;;;;19.17;48.98;96263.03;1753784;82;21031;-71
2022/05/09 09:16:46;;;;;;;5.35;3.52;;;;;;;19.00;49.09;96259.75;1744957;82;21043;-71
2022/05/09 09:19:27;;;;;;;5.35;3.33;;;;;;;18.86;48.22;96262.11;1732336;83;21481;-71
2022/05/09 09:22:05;;;;;;;4.90;4.40;;;;;;;18.70;49.07;96258.30;1752773;82;21046;-72
2022/05/09 09:25:03;;;;;;;4.08;3.67;;;;;;;18.63;50.13;96256.31;1754206;82;21050;-71
2022/05/09 09:27:48;;;;;;;3.20;2.87;;;;;;;18.67;50.83;96260.63;1754076;81;21016;-72
2022/05/09 09:30:18;;;;;;;3.92;3.00;;;;;;;18.70;49.88;96272.99;1754445;81;20987;-72
2022/05/09 09:32:59;;;;;;;2.52;2.35;;;;;;;18.73;49.09;96264.84;1732376;83;21472;-72
2022/05/09 09:35:44;;;;;;;2.50;2.30;;;;;;;18.68;48.23;96274.85;1753959;82;21019;-72
2022/05/09 09:38:40;;;;;;;3.72;1.87;;;;;;;18.57;48.04;96271.24;1735593;82;21003;-72
2022/05/09 09:41:30;;;;;;;3.27;1.70;;;;;;;18.54;46.61;96279.39;1753582;81;21043;-72
2022/05/09 09:44:12;;;;;;;1.70;1.35;;;;;;;18.51;47.09;96280.38;1732397;83;21014;-71
2022/05/09 09:47:07;;;;;;;2.02;1.30;;;;;;;18.17;46.89;96286.16;1741443;82;21042;-69
2022/05/09 09:49:39;;;;;;;2.92;1.60;;;;;;;18.17;46.89;96286.16;1753931;82;20996;-70
2022/05/09 09:52:29;;;;;;;2.42;1.20;;;;;;;17.94;48.17;96287.88;1754077;82;21536;-70
2022/05/09 09:55:09;;;;;;;3.25;1.20;;;;;;;17.84;47.84;96286.47;1754357;82;20999;-70
2022/05/09 09:57:38;;;;;;;2.70;1.20;;;;;;;17.83;46.04;96290.05;1754330;81;21051;-69
2022/05/09 10:00:25;;;;;;;2.47;1.35;;;;;;;17.90;46.79;96288.91;1732068;82;21066;-69
2022/05/09 10:02:54;;;;;;;2.75;1.30;;;;;;;18.00;45.24;96284.58;1752792;82;22218;-69
2022/05/09 10:05:35;;;;;;;3.62;1.40;;;;;;;18.07;43.81;96274.08;1731698;83;21057;-69
2022/05/09 10:08:21;;;;;;;1.82;1.47;;;;;;;18.14;44.60;96278.23;1751456;82;21035;-69
2022/05/09 10:11:22;;;;;;;1.92;1.70;;;;;;;18.27;45.84;96274.63;1745943;82;21536;-70
2022/05/09 10:13:56;;;;;;;3.20;2.08;;;;;;;18.40;45.00;96270.59;1724107;83;21057;-69
2022/05/09 10:16:37;;;;;;;2.65;1.80;;;;;;;18.49;43.95;96266.20;1746069;82;21007;-70
2022/05/09 10:19:10;;;;;;;2.90;2.22;;;;;;;18.65;44.33;96273.17;1746080;82;21004;-70
2022/05/09 10:24:47;;;;;;;3.87;1.45;;;;;;;18.95;44.77;96263.08;1745518;82;21114;-70
2022/05/09 10:27:27;;;;;;;3.08;1.75;;;;;;;18.93;52.10;96264.94;1746081;81;20988;-70
2022/05/09 10:29:56;;;;;;;2.80;1.70;;;;;;;18.92;54.67;96270.34;1744301;82;21614;-70
2022/05/09 10:32:42;;;;;;;4.15;1.90;;;;;;;19.09;54.30;96260.30;1746022;81;21003;-70
2022/05/09 10:35:23;;;;;;;3.02;1.50;;;;;;;19.21;54.42;96265.13;1724428;82;21548;-70
2022/05/09 10:38:00;;;;;;;2.70;2.10;;;;;;;19.31;55.09;96258.45;1746192;82;20999;-70
2022/05/09 10:40:39;;;;;;;8.50;2.30;;;;;;;19.48;54.58;96252.39;1746082;82;20988;-69
2022/05/09 10:43:10;;;;;;;5.58;2.70;;;;;;;19.64;54.17;96247.23;1745968;82;20992;-69
2022/05/09 10:45:44;;;;;;;6.67;2.67;;;;;;;19.79;54.15;96249.26;1745892;82;21030;-69
2022/05/09 10:48:30;;;;;;;5.75;3.75;;;;;;;20.00;54.25;96244.73;1745713;82;21022;-69
2022/05/09 10:51:07;;;;;;;5.47;3.80;;;;;;;20.25;51.48;96238.25;1724878;82;21075;-70
2022/05/09 10:53:55;;;;;;;5.58;3.40;;;;;;;20.54;50.58;96236.89;1746224;82;20976;-70
2022/05/09 10:56:32;;;;;;;6.17;4.00;;;;;;;20.93;48.15;96231.89;1745960;82;21485;-70
2022/05/09 10:59:09;;;;;;;8.40;4.08;;;;;;;21.32;45.53;96227.70;1745719;82;21011;-70
2022/05/09 11:01:44;;;;;;;5.80;4.33;;;;;;;21.56;47.19;96232.77;1746077;82;21489;-70
2022/05/09 11:04:13;;;;;;;6.42;3.83;;;;;;;21.64;43.45;96230.55;1746126;81;21011;-70
2022/05/09 11:07:07;;;;;;;4.33;3.83;;;;;;;21.73;44.49;96235.45;1746047;82;21058;-70
2022/05/09 11:09:59;;;;;;;5.87;4.37;;;;;;;21.88;47.73;96235.11;1752589;82;21592;-70
2022/05/09 11:12:58;;;;;;;4.72;4.33;;;;;;;22.05;45.57;96230.19;1754176;82;21007;-70
2022/05/09 11:15:47;;;;;;;7.95;4.50;;;;;;;22.29;45.23;96228.00;1754646;82;20999;-69
2022/05/09 11:19:06;;;;;;;4.50;4.03;;;;;;;22.26;44.87;96218.77;1732495;82;20995;-68
2022/05/09 11:21:58;;;;;;;14.95;4.47;;;;;;;22.61;44.87;96214.11;1690718;85;21541;-69
2022/05/09 11:24:59;;;;;;;3.97;3.67;;;;;;;22.77;43.29;96211.89;1698286;84;21009;-69
2022/05/09 11:27:55;;;;;;;7.62;4.05;;;;;;;22.44;44.14;96222.26;1749318;82;21798;-69
2022/05/09 11:30:33;;;;;;;4.62;3.80;;;;;;;21.93;43.58;96213.38;1759252;81;20991;-69
2022/05/09 11:33:37;;;;;;;5.58;4.30;;;;;;;21.65;46.06;96216.67;1759471;81;20995;-70
2022/05/09 11:36:41;;;;;;;5.33;4.80;;;;;;;21.36;44.41;96206.44;1759209;81;21138;-70
2022/05/09 11:39:22;;;;;;;4.45;4.05;;;;;;;21.17;44.55;96212.37;1759157;81;21022;-70
2022/05/09 11:45:15;;;;;;;5.22;4.12;;;;;;;20.73;46.97;96208.73;1754082;82;21058;-70
2022/05/09 11:48:10;;;;;;;5.50;3.95;;;;;;;20.84;45.63;96220.27;1754148;82;21031;-69
2022/05/09 11:50:53;;;;;;;5.60;3.60;;;;;;;20.84;45.01;96220.27;1754263;82;20995;-70
2022/05/09 11:53:24;;;;;;;4.00;3.60;;;;;;;20.91;43.88;96221.70;1750712;82;21023;-69
2022/05/09 11:55:52;;;;;;;4.40;3.35;;;;;;;20.80;43.08;96229.43;1754401;82;21019;-70
2022/05/09 11:58:20;;;;;;;3.08;2.75;;;;;;;20.72;43.67;96229.33;1732072;82;21043;-69
2022/05/09 12:00:50;;;;;;;4.10;3.15;;;;;;;20.48;40.81;96227.78;1754475;82;21059;-69
2022/05/09 12:03:31;;;;;;;3.22;2.92;;;;;;;20.49;42.82;96229.55;1754264;82;21030;-70
2022/05/09 12:06:01;;;;;;;3.80;3.50;;;;;;;20.52;42.79;96228.91;1722949;82;21015;-70
2022/05/09 12:08:48;;;;;;;8.45;4.03;;;;;;;20.47;43.05;96227.41;1730410;82;21050;-70
2022/05/09 12:11:29;;;;;;;4.60;3.40;;;;;;;20.57;43.75;96229.20;1723242;83;20996;-70
2022/05/09 12:13:59;;;;;;;3.70;3.35;;;;;;;20.72;44.79;96219.94;1745985;82;21050;-70
2022/05/09 12:16:40;;;;;;;3.80;3.40;;;;;;;20.83;42.46;96220.75;1746157;81;20960;-70
2022/05/09 12:19:31;;;;;;;5.35;3.95;;;;;;;20.93;42.46;96207.27;1745718;82;21043;-70